createdAt,value
2022-10-13T00:00:35.365Z,98831.31
2022-10-13T00:03:03.214Z,98832.81
2022-10-13T00:05:30.979Z,98831.69
2022-10-13T00:07:57.727Z,98833.78
2022-10-13T00:10:25.105Z,98831.47
2022-10-13T00:12:52.006Z,98836.63
2022-10-13T00:15:22.104Z,98846.22
2022-10-13T00:17:48.762Z,98839.94
2022-10-13T00:20:15.404Z,98849.81
2022-10-13T00:22:42.178Z,98850.88
2022-10-13T00:25:09.179Z,98841.91
2022-10-13T00:27:35.818Z,98842.09
2022-10-13T00:30:02.573Z,98843.25
2022-10-13T00:32:29.673Z,98838.94
2022-10-13T00:34:57.812Z,98848.53
2022-10-13T00:37:25.227Z,98847.19
2022-10-13T00:39:52.047Z,98841.81
2022-10-13T00:42:23.435Z,98848.44
2022-10-13T00:45:01.672Z,98841.13
2022-10-13T00:47:36.633Z,98844.38
2022-10-13T00:50:04.891Z,98848.53
2022-10-13T00:52:32.340Z,98843.75
2022-10-13T00:54:59.615Z,98832.94
2022-10-13T00:57:26.395Z,98838.47
2022-10-13T00:59:53.109Z,98832.81
2022-10-13T01:02:20.446Z,98835.38
2022-10-13T01:04:50.346Z,98836.31
2022-10-13T01:07:19.098Z,98842.03
2022-10-13T01:09:45.825Z,98839.97
2022-10-13T01:12:33.496Z,98831.69
2022-10-13T01:15:15.007Z,98840.69
2022-10-13T01:18:04.033Z,98827.53
2022-10-13T01:20:41.711Z,98836.06
2022-10-13T01:23:17.947Z,98830.13
2022-10-13T01:26:14.716Z,98829.72
2022-10-13T01:29:14.985Z,98831.13
2022-10-13T01:31:47.892Z,98831.50
2022-10-13T01:34:20.916Z,98833.34
2022-10-13T01:36:56.726Z,98829.19
2022-10-13T01:39:38.088Z,98826.53
2022-10-13T01:42:13.239Z,98829.19
2022-10-13T01:44:47.208Z,98825.22
2022-10-13T01:47:16.095Z,98821.41
2022-10-13T01:49:44.622Z,98815.25
2022-10-13T01:52:15.241Z,98814.09
2022-10-13T01:54:42.001Z,98819.81
2022-10-13T01:57:30.664Z,98809.44
2022-10-13T01:59:59.188Z,98813.59
2022-10-13T02:02:33.320Z,98807.94
2022-10-13T02:05:17.967Z,98797.81
2022-10-13T02:08:13.657Z,98805.78
2022-10-13T02:10:48.228Z,98798.50
2022-10-13T02:13:16.180Z,98801.81
2022-10-13T02:15:46.353Z,98807.28
2022-10-13T02:18:15.299Z,98801.66
2022-10-13T02:20:42.590Z,98801.50
2022-10-13T02:23:14.323Z,98802.19
2022-10-13T02:25:41.797Z,98798.31
2022-10-13T02:28:08.924Z,98806.00
2022-10-13T02:30:42.559Z,98809.28
2022-10-13T02:33:09.771Z,98808.31
2022-10-13T02:35:37.843Z,98809.16
2022-10-13T02:38:05.218Z,98808.69
2022-10-13T02:40:31.995Z,98817.50
2022-10-13T02:42:58.619Z,98815.69
2022-10-13T02:45:25.476Z,98813.03
2022-10-13T02:47:54.921Z,98813.56
2022-10-13T02:50:21.644Z,98814.50
2022-10-13T02:52:50.401Z,98814.38
2022-10-13T02:55:17.063Z,98808.09
2022-10-13T02:57:45.676Z,98802.81
2022-10-13T03:00:13.101Z,98806.50
2022-10-13T03:02:39.743Z,98798.53
2022-10-13T03:05:06.591Z,98805.19
2022-10-13T03:07:33.209Z,98801.41
2022-10-13T03:09:59.842Z,98800.84
2022-10-13T03:12:26.446Z,98802.50
2022-10-13T03:14:53.071Z,98802.50
2022-10-13T03:17:19.814Z,98796.53
2022-10-13T03:19:46.444Z,98793.69
2022-10-13T03:22:17.276Z,98803.16
2022-10-13T03:24:44.225Z,98789.22
2022-10-13T03:27:11.223Z,98789.53
2022-10-13T03:29:38.226Z,98791.69
2022-10-13T03:32:05.207Z,98786.06
2022-10-13T03:34:31.928Z,98786.06
2022-10-13T03:37:04.129Z,98777.63
2022-10-13T03:39:34.541Z,98775.31
2022-10-13T03:42:01.208Z,98770.84
2022-10-13T03:44:28.133Z,98767.84
2022-10-13T03:46:54.801Z,98764.59
2022-10-13T03:49:21.600Z,98765.41
2022-10-13T03:51:48.304Z,98768.41
2022-10-13T03:54:15.238Z,98763.94
2022-10-13T03:56:44.841Z,98766.25
2022-10-13T03:59:13.403Z,98770.41
2022-10-13T04:01:40.479Z,98766.38
2022-10-13T04:04:07.986Z,98764.72
2022-10-13T04:06:34.603Z,98768.66
2022-10-13T04:09:01.230Z,98775.31
2022-10-13T04:11:27.862Z,98768.38
2022-10-13T04:13:56.937Z,98770.88
2022-10-13T04:16:25.700Z,98773.69
2022-10-13T04:18:56.139Z,98778.00
2022-10-13T04:21:23.791Z,98767.00
2022-10-13T04:23:50.712Z,98763.53
2022-10-13T04:26:20.443Z,98768.03
2022-10-13T04:28:48.344Z,98762.38
2022-10-13T04:31:15.268Z,98756.44
2022-10-13T04:33:42.133Z,98761.38
2022-10-13T04:36:10.873Z,98768.47
2022-10-13T04:38:37.804Z,98763.97
2022-10-13T04:41:05.725Z,98765.81
2022-10-13T04:43:33.340Z,98764.63
2022-10-13T04:46:14.655Z,98767.78
2022-10-13T04:48:41.663Z,98766.06
2022-10-13T04:51:10.656Z,98761.53
2022-10-13T04:53:37.810Z,98757.72
2022-10-13T04:56:13.048Z,98757.69
2022-10-13T04:58:39.703Z,98753.53
2022-10-13T05:01:07.971Z,98757.31
2022-10-13T05:03:34.913Z,98755.78
2022-10-13T05:06:02.102Z,98754.63
2022-10-13T05:08:28.920Z,98736.28
2022-10-13T05:11:01.131Z,98743.16
2022-10-13T05:13:29.682Z,98742.69
2022-10-13T05:15:58.013Z,98741.38
2022-10-13T05:18:24.879Z,98740.53
2022-10-13T05:20:51.611Z,98758.78
2022-10-13T05:23:18.873Z,98760.63
2022-10-13T05:25:45.540Z,98761.13
2022-10-13T05:28:14.639Z,98755.50
2022-10-13T05:30:41.331Z,98751.69
2022-10-13T05:33:08.133Z,98759.19
2022-10-13T05:35:34.743Z,98756.03
2022-10-13T05:38:01.370Z,98761.16
2022-10-13T05:40:30.891Z,98765.31
2022-10-13T05:43:00.524Z,98773.47
2022-10-13T05:45:28.236Z,98763.19
2022-10-13T05:47:54.961Z,98764.03
2022-10-13T05:50:21.556Z,98771.19
2022-10-13T05:52:48.202Z,98770.75
2022-10-13T05:55:15.984Z,98761.28
2022-10-13T05:57:48.900Z,98767.22
2022-10-13T06:00:17.612Z,98763.97
2022-10-13T06:02:54.487Z,98759.81
2022-10-13T06:05:22.302Z,98753.78
2022-10-13T06:07:52.757Z,98746.84
2022-10-13T06:10:19.558Z,98743.03
2022-10-13T06:12:46.177Z,98739.59
2022-10-13T06:15:13.032Z,98741.38
2022-10-13T06:17:40.088Z,98737.28
2022-10-13T06:20:07.604Z,98738.25
2022-10-13T06:22:35.872Z,98735.44
2022-10-13T06:25:03.510Z,98730.94
2022-10-13T06:27:31.271Z,98747.56
2022-10-13T06:29:59.158Z,98749.88
2022-10-13T06:32:25.854Z,98745.56
2022-10-13T06:34:52.496Z,98744.38
2022-10-13T06:37:21.198Z,98748.03
2022-10-13T06:39:51.620Z,98754.06
2022-10-13T06:42:18.850Z,98757.72
2022-10-13T06:44:46.429Z,98754.09
2022-10-13T06:47:13.039Z,98746.09
2022-10-13T06:49:39.694Z,98748.91
2022-10-13T06:52:06.376Z,98745.91
2022-10-13T06:54:32.987Z,98747.75
2022-10-13T06:56:59.813Z,98748.44
2022-10-13T06:59:27.819Z,98749.63
2022-10-13T07:01:54.688Z,98751.81
2022-10-13T07:04:21.422Z,98747.16
2022-10-13T07:06:48.107Z,98740.34
2022-10-13T07:09:14.770Z,98743.84
2022-10-13T07:11:44.321Z,98749.16
2022-10-13T07:14:11.037Z,98748.97
2022-10-13T07:16:37.620Z,98755.78
2022-10-13T07:19:04.799Z,98750.16
2022-10-13T07:21:31.540Z,98758.13
2022-10-13T07:23:58.240Z,98748.63
2022-10-13T07:26:24.882Z,98748.84
2022-10-13T07:28:51.646Z,98743.31
2022-10-13T07:31:20.234Z,98743.16
2022-10-13T07:33:48.732Z,98751.81
2022-10-13T07:36:17.051Z,98745.50
2022-10-13T07:38:43.717Z,98747.81
2022-10-13T07:41:11.613Z,98736.19
2022-10-13T07:43:38.787Z,98741.84
2022-10-13T07:46:06.940Z,98740.16
2022-10-13T07:48:34.824Z,98742.50
2022-10-13T07:51:10.668Z,98744.78
2022-10-13T07:53:37.507Z,98737.44
2022-10-13T07:56:06.185Z,98734.94
2022-10-13T07:58:33.621Z,98743.41
2022-10-13T08:01:01.907Z,98733.47
2022-10-13T08:03:30.299Z,98745.09
2022-10-13T08:05:59.355Z,98744.75
2022-10-13T08:08:26.153Z,98734.94
2022-10-13T08:13:23.397Z,98723.56
2022-10-13T08:15:50.119Z,98726.34
2022-10-13T08:18:16.775Z,98724.75
2022-10-13T08:20:45.177Z,98719.78
2022-10-13T08:23:13.073Z,98716.09
2022-10-13T08:25:48.286Z,98716.09
2022-10-13T08:28:20.820Z,98706.81
2022-10-13T08:30:47.483Z,98700.31
2022-10-13T08:33:14.496Z,98702.31
2022-10-13T08:35:42.612Z,98703.44
2022-10-13T08:38:09.549Z,98710.78
2022-10-13T08:40:37.782Z,98712.53
2022-10-13T08:43:08.881Z,98709.72
2022-10-13T08:45:41.224Z,98708.59
2022-10-13T08:48:27.261Z,98696.91
2022-10-13T08:50:58.440Z,98710.13
2022-10-13T08:53:31.926Z,98698.69
2022-10-13T08:56:02.516Z,98705.09
2022-10-13T08:58:32.767Z,98698.56
2022-10-13T09:01:02.333Z,98709.34
2022-10-13T09:03:29.952Z,98702.56
2022-10-13T09:05:58.811Z,98695.28
2022-10-13T09:08:27.139Z,98699.06
2022-10-13T09:10:54.090Z,98695.69
2022-10-13T09:13:22.288Z,98697.03
2022-10-13T09:15:52.729Z,98692.38
2022-10-13T09:18:28.660Z,98686.47
2022-10-13T09:21:09.958Z,98683.91
2022-10-13T09:23:39.573Z,98690.63
2022-10-13T09:26:09.845Z,98695.88
2022-10-13T09:28:38.554Z,98691.44
2022-10-13T09:31:10.263Z,98697.72
2022-10-13T09:33:40.120Z,98692.56
2022-10-13T09:36:11.241Z,98698.00
2022-10-13T09:38:39.336Z,98702.47
2022-10-13T09:41:09.030Z,98704.50
2022-10-13T09:43:41.979Z,98698.09
2022-10-13T09:46:43.734Z,98695.16
2022-10-13T09:49:28.500Z,98694.66
2022-10-13T09:52:20.621Z,98694.66
2022-10-13T09:54:59.296Z,98693.03
2022-10-13T09:57:34.952Z,98709.38
2022-10-13T10:00:23.217Z,98703.34
2022-10-13T10:02:52.640Z,98698.66
2022-10-13T10:05:19.259Z,98697.97
2022-10-13T10:07:48.696Z,98686.19
2022-10-13T10:10:33.247Z,98685.66
2022-10-13T10:13:02.894Z,98685.19
2022-10-13T10:15:52.681Z,98689.81
2022-10-13T10:18:26.066Z,98693.94
2022-10-13T10:21:08.003Z,98686.66
2022-10-13T10:23:46.657Z,98681.69
2022-10-13T10:26:23.204Z,98683.25
2022-10-13T10:28:59.100Z,98689.16
2022-10-13T10:31:33.444Z,98696.31
2022-10-13T10:34:03.141Z,98688.88
2022-10-13T10:36:38.728Z,98672.59
2022-10-13T10:39:27.051Z,98677.28
2022-10-13T10:42:41.525Z,98675.25
2022-10-13T10:45:30.029Z,98669.06
2022-10-13T10:48:04.664Z,98669.72
2022-10-13T10:50:33.345Z,98668.50
2022-10-13T10:53:27.604Z,98664.81
2022-10-13T10:56:00.982Z,98662.94
2022-10-13T10:58:59.375Z,98660.16
2022-10-13T11:01:32.091Z,98649.03
2022-10-13T11:04:21.842Z,98645.06
2022-10-13T11:06:52.880Z,98638.53
2022-10-13T11:09:40.868Z,98636.63
2022-10-13T11:12:19.941Z,98640.81
2022-10-13T11:15:08.239Z,98630.22
2022-10-13T11:17:39.680Z,98629.59
2022-10-13T11:20:21.570Z,98619.13
2022-10-13T11:23:17.226Z,98625.03
2022-10-13T11:25:47.802Z,98617.09
2022-10-13T11:28:23.676Z,98614.16
2022-10-13T11:30:51.602Z,98609.50
2022-10-13T11:33:37.074Z,98612.47
2022-10-13T11:36:31.794Z,98609.94
2022-10-13T11:39:16.983Z,98599.25
2022-10-13T11:41:58.897Z,98605.53
2022-10-13T11:44:41.096Z,98602.66
2022-10-13T11:47:17.064Z,98598.56
2022-10-13T11:49:52.702Z,98598.78
2022-10-13T11:52:36.368Z,98592.47
2022-10-13T11:55:11.066Z,98576.25
2022-10-13T11:57:37.692Z,98571.38
2022-10-13T12:00:04.800Z,98576.25
2022-10-13T12:02:51.621Z,98580.72
2022-10-13T12:05:25.357Z,98575.03
2022-10-13T12:07:53.688Z,98567.06
2022-10-13T12:10:32.059Z,98561.88
2022-10-13T12:13:00.376Z,98557.19
2022-10-13T12:15:43.769Z,98551.94
2022-10-13T12:18:27.042Z,98558.22
2022-10-13T12:20:58.596Z,98543.41
2022-10-13T12:23:26.442Z,98544.72
2022-10-13T12:25:58.236Z,98542.28
2022-10-13T12:28:28.268Z,98545.38
2022-10-13T12:30:57.605Z,98535.72
2022-10-13T12:33:32.967Z,98534.34
2022-10-13T12:36:23.089Z,98523.25
2022-10-13T12:38:53.097Z,98524.53
2022-10-13T12:41:27.117Z,98522.41
2022-10-13T12:43:54.442Z,98517.78
2022-10-13T12:46:43.221Z,98519.34
2022-10-13T12:51:50.476Z,98511.28
2022-10-13T12:54:20.528Z,98513.06
2022-10-13T12:56:47.369Z,98502.19
2022-10-13T12:59:17.295Z,98507.97
2022-10-13T13:01:59.217Z,98506.03
2022-10-13T13:04:46.551Z,98502.03
2022-10-13T13:07:32.947Z,98501.41
2022-10-13T13:10:08.447Z,98489.50
2022-10-13T13:12:36.386Z,98491.38
2022-10-13T13:15:34.410Z,98487.69
2022-10-13T13:18:29.191Z,98496.13
2022-10-13T13:20:56.400Z,98491.22
2022-10-13T13:23:23.846Z,98491.59
2022-10-13T13:26:20.817Z,98492.84
2022-10-13T13:28:50.057Z,98490.75
2022-10-13T13:31:40.210Z,98483.94
2022-10-13T13:34:13.653Z,98483.91
2022-10-13T13:36:46.209Z,98488.84
2022-10-13T13:39:18.783Z,98495.22
2022-10-13T13:41:45.551Z,98494.81
2022-10-13T13:44:12.327Z,98486.78
2022-10-13T13:46:39.388Z,98493.19
2022-10-13T13:49:08.828Z,98489.69
2022-10-13T13:51:35.576Z,98477.53
2022-10-13T13:54:02.428Z,98481.84
2022-10-13T13:56:29.248Z,98482.25
2022-10-13T13:58:56.002Z,98486.75
2022-10-13T14:01:23.719Z,98481.00
2022-10-13T14:03:51.651Z,98487.59
2022-10-13T14:06:25.525Z,98488.25
2022-10-13T14:08:52.496Z,98484.94
2022-10-13T14:11:19.392Z,98487.41
2022-10-13T14:13:46.480Z,98479.78
2022-10-13T14:16:24.229Z,98479.38
2022-10-13T14:18:54.010Z,98473.41
2022-10-13T14:21:25.760Z,98469.28
2022-10-13T14:23:56.851Z,98473.19
2022-10-13T14:26:23.915Z,98471.91
2022-10-13T14:28:50.644Z,98466.94
2022-10-13T14:31:17.409Z,98476.00
2022-10-13T14:33:48.748Z,98468.38
2022-10-13T14:36:18.755Z,98471.47
2022-10-13T14:38:45.457Z,98463.81
2022-10-13T14:41:12.144Z,98463.34
2022-10-13T14:43:38.786Z,98466.22
2022-10-13T14:46:06.295Z,98466.38
2022-10-13T14:48:34.172Z,98455.91
2022-10-13T14:51:10.571Z,98465.38
2022-10-13T14:53:42.254Z,98475.00
2022-10-13T14:56:26.558Z,98473.88
2022-10-13T14:58:59.842Z,98468.69
2022-10-13T15:01:33.760Z,98468.69
2022-10-13T15:04:01.358Z,98470.72
2022-10-13T15:06:29.497Z,98469.81
2022-10-13T15:08:56.367Z,98480.66
2022-10-13T15:11:24.434Z,98471.28
2022-10-13T15:13:51.562Z,98476.28
2022-10-13T15:16:23.634Z,98482.66
2022-10-13T15:18:50.856Z,98479.47
2022-10-13T15:21:18.120Z,98467.53
2022-10-13T15:23:45.163Z,98457.28
2022-10-13T15:26:13.188Z,98463.84
2022-10-13T15:28:42.140Z,98467.06
2022-10-13T15:31:10.082Z,98473.97
2022-10-13T15:33:39.556Z,98479.00
2022-10-13T15:36:06.395Z,98475.59
2022-10-13T15:38:33.057Z,98473.22
2022-10-13T15:41:01.026Z,98473.97
2022-10-13T15:43:28.047Z,98465.53
2022-10-13T15:45:57.281Z,98469.34
2022-10-13T15:48:24.170Z,98469.72
2022-10-13T15:50:50.770Z,98473.94
2022-10-13T15:53:17.787Z,98475.88
2022-10-13T15:55:44.464Z,98475.50
2022-10-13T15:58:13.670Z,98488.84
2022-10-13T16:00:41.475Z,98484.63
2022-10-13T16:03:10.825Z,98494.09
2022-10-13T16:05:40.578Z,98499.59
2022-10-13T16:08:07.214Z,98490.13
2022-10-13T16:10:33.898Z,98490.78
2022-10-13T16:13:00.635Z,98478.06
2022-10-13T16:15:29.197Z,98485.53
2022-10-13T16:17:55.827Z,98486.28
2022-10-13T16:20:22.526Z,98487.53
2022-10-13T16:22:49.172Z,98492.16
2022-10-13T16:25:15.987Z,98476.16
2022-10-13T16:27:44.503Z,98475.13
2022-10-13T16:30:11.881Z,98475.34
2022-10-13T16:32:39.760Z,98488.66
2022-10-13T16:35:07.253Z,98498.88
2022-10-13T16:37:34.574Z,98508.69
2022-10-13T16:40:01.244Z,98498.25
2022-10-13T16:42:28.135Z,98500.09
2022-10-13T16:44:54.742Z,98490.03
2022-10-13T16:47:21.593Z,98481.22
2022-10-13T16:49:48.550Z,98480.56
2022-10-13T16:52:16.395Z,98482.41
2022-10-13T16:54:43.742Z,98500.78
2022-10-13T16:57:10.735Z,98493.09
2022-10-13T16:59:37.510Z,98501.81
2022-10-13T17:02:04.341Z,98495.47
2022-10-13T17:04:31.368Z,98503.00
2022-10-13T17:06:58.471Z,98487.53
2022-10-13T17:09:25.132Z,98491.44
2022-10-13T17:11:51.834Z,98484.88
2022-10-13T17:14:18.540Z,98487.81
2022-10-13T17:16:47.956Z,98484.97
2022-10-13T17:19:14.583Z,98487.81
2022-10-13T17:21:41.276Z,98501.53
2022-10-13T17:24:08.640Z,98494.91
2022-10-13T17:26:35.371Z,98487.75
2022-10-13T17:29:02.190Z,98482.84
2022-10-13T17:31:29.039Z,98483.50
2022-10-13T17:33:55.716Z,98475.34
2022-10-13T17:36:28.131Z,98479.38
2022-10-13T17:38:56.741Z,98481.66
2022-10-13T17:41:23.967Z,98477.38
2022-10-13T17:43:51.828Z,98484.88
2022-10-13T17:46:41.595Z,98479.91
2022-10-13T17:49:11.163Z,98479.91
2022-10-13T17:51:38.463Z,98483.59
2022-10-13T17:54:14.445Z,98482.56
2022-10-13T17:56:42.563Z,98488.19
2022-10-13T17:59:09.960Z,98491.06
2022-10-13T18:01:36.893Z,98478.63
2022-10-13T18:04:09.311Z,98484.63
2022-10-13T18:06:40.532Z,98484.78
2022-10-13T18:09:09.411Z,98483.97
2022-10-13T18:11:36.589Z,98492.13
2022-10-13T18:14:03.537Z,98489.09
2022-10-13T18:16:30.636Z,98497.56
2022-10-13T18:18:57.285Z,98491.44
2022-10-13T18:21:27.559Z,98487.91
2022-10-13T18:23:55.815Z,98488.28
2022-10-13T18:26:22.900Z,98473.47
2022-10-13T18:28:50.438Z,98480.38
2022-10-13T18:31:28.270Z,98485.97
2022-10-13T18:33:57.967Z,98493.44
2022-10-13T18:36:35.603Z,98499.13
2022-10-13T18:39:12.173Z,98500.31
2022-10-13T18:41:39.663Z,98500.94
2022-10-13T18:44:06.987Z,98493.81
2022-10-13T18:46:34.906Z,98491.47
2022-10-13T18:49:02.815Z,98491.31
2022-10-13T18:51:35.615Z,98492.13
2022-10-13T18:54:03.011Z,98494.78
2022-10-13T18:56:30.418Z,98491.97
2022-10-13T18:58:59.971Z,98493.88
2022-10-13T19:01:28.882Z,98494.91
2022-10-13T19:03:56.111Z,98499.97
2022-10-13T19:06:27.223Z,98499.31
2022-10-13T19:08:56.447Z,98501.59
2022-10-13T19:11:23.751Z,98495.63
2022-10-13T19:13:51.169Z,98487.81
2022-10-13T19:16:20.432Z,98484.06
2022-10-13T19:18:47.519Z,98488.00
2022-10-13T19:21:14.643Z,98488.66
2022-10-13T19:23:41.433Z,98487.34
2022-10-13T19:26:24.873Z,98475.41
2022-10-13T19:28:56.201Z,98474.59
2022-10-13T19:31:24.995Z,98472.28
2022-10-13T19:33:52.748Z,98487.78
2022-10-13T19:36:30.324Z,98481.63
2022-10-13T19:39:01.051Z,98495.34
2022-10-13T19:41:29.407Z,98491.03
2022-10-13T19:43:56.154Z,98486.34
2022-10-13T19:46:24.199Z,98494.06
2022-10-13T19:48:51.271Z,98490.94
2022-10-13T19:51:18.316Z,98497.47
2022-10-13T19:53:45.091Z,98502.13
2022-10-13T19:56:26.618Z,98496.31
2022-10-13T19:58:54.065Z,98498.81
2022-10-13T20:01:22.294Z,98504.88
2022-10-13T20:03:49.167Z,98503.19
2022-10-13T20:06:16.652Z,98500.72
2022-10-13T20:08:44.975Z,98499.19
2022-10-13T20:11:15.731Z,98506.16
2022-10-13T20:13:45.528Z,98504.00
2022-10-13T20:16:15.656Z,98495.41
2022-10-13T20:18:42.591Z,98495.56
2022-10-13T20:21:11.651Z,98496.28
2022-10-13T20:23:40.635Z,98500.72
2022-10-13T20:26:09.446Z,98509.00
2022-10-13T20:28:42.744Z,98508.00
2022-10-13T20:31:12.876Z,98516.16
2022-10-13T20:33:40.463Z,98518.81
2022-10-13T20:36:10.564Z,98521.00
2022-10-13T20:38:37.317Z,98520.38
2022-10-13T20:41:11.353Z,98529.38
2022-10-13T20:43:38.012Z,98528.06
2022-10-13T20:46:06.545Z,98522.44
2022-10-13T20:48:57.736Z,98521.97
2022-10-13T20:51:23.098Z,98521.31
2022-10-13T20:53:49.804Z,98521.81
2022-10-13T20:56:19.514Z,98515.53
2022-10-13T20:58:47.018Z,98511.03
2022-10-13T21:01:14.174Z,98511.84
2022-10-13T21:03:40.851Z,98517.38
2022-10-13T21:06:10.576Z,98509.09
2022-10-13T21:08:37.395Z,98502.75
2022-10-13T21:11:05.736Z,98510.44
2022-10-13T21:13:32.812Z,98505.13
2022-10-13T21:16:12.767Z,98513.44
2022-10-13T21:18:39.478Z,98507.09
2022-10-13T21:21:10.542Z,98499.00
2022-10-13T21:23:39.376Z,98512.47
2022-10-13T21:26:08.578Z,98507.09
2022-10-13T21:28:39.095Z,98512.41
2022-10-13T21:31:08.294Z,98511.44
2022-10-13T21:33:36.909Z,98515.75
2022-10-13T21:36:08.432Z,98521.41
2022-10-13T21:38:35.167Z,98516.63
2022-10-13T21:41:04.826Z,98524.97
2022-10-13T21:43:31.538Z,98515.69
2022-10-13T21:45:58.135Z,98518.81
2022-10-13T21:48:25.212Z,98516.81
2022-10-13T21:50:51.825Z,98514.97
2022-10-13T21:53:18.575Z,98519.28
2022-10-13T21:55:45.217Z,98517.44
2022-10-13T21:58:11.939Z,98521.09
2022-10-13T22:00:38.910Z,98521.25
2022-10-13T22:03:05.606Z,98516.91
2022-10-13T22:05:32.276Z,98518.28
2022-10-13T22:07:58.886Z,98521.47
2022-10-13T22:10:25.582Z,98522.94
2022-10-13T22:12:54.183Z,98518.00
2022-10-13T22:15:20.769Z,98524.50
2022-10-13T22:17:47.586Z,98524.50
2022-10-13T22:20:14.292Z,98523.78
2022-10-13T22:22:40.973Z,98528.56
2022-10-13T22:25:08.373Z,98530.22
2022-10-13T22:27:35.684Z,98524.91
2022-10-13T22:30:02.409Z,98530.41
2022-10-13T22:32:29.129Z,98528.38
2022-10-13T22:34:55.716Z,98535.38
2022-10-13T22:37:23.057Z,98528.91
2022-10-13T22:39:49.904Z,98522.75
2022-10-13T22:42:16.762Z,98522.41
2022-10-13T22:44:43.415Z,98522.56
2022-10-13T22:47:10.051Z,98525.22
2022-10-13T22:49:36.690Z,98519.91
2022-10-13T22:52:03.901Z,98521.09
2022-10-13T22:54:30.599Z,98522.56
2022-10-13T22:56:57.244Z,98522.41
2022-10-13T22:59:23.879Z,98522.88
2022-10-13T23:01:50.515Z,98525.44
2022-10-13T23:04:17.165Z,98522.41
2022-10-13T23:06:43.822Z,98518.72
2022-10-13T23:09:12.734Z,98518.25
2022-10-13T23:11:39.767Z,98518.25
2022-10-13T23:14:08.133Z,98512.59
2022-10-13T23:16:34.765Z,98512.31
2022-10-13T23:19:01.592Z,98509.81
2022-10-13T23:21:29.755Z,98513.03
2022-10-13T23:23:57.024Z,98515.03
2022-10-13T23:26:24.074Z,98509.56
2022-10-13T23:28:51.183Z,98511.25
2022-10-13T23:31:18.398Z,98512.53
2022-10-13T23:33:45.069Z,98509.69
2022-10-13T23:36:30.990Z,98512.53
2022-10-13T23:38:59.587Z,98513.03
2022-10-13T23:41:26.750Z,98507.69
2022-10-13T23:43:54.115Z,98510.16
2022-10-13T23:46:20.944Z,98513.50
2022-10-13T23:48:47.750Z,98512.81
2022-10-13T23:51:17.108Z,98515.31
2022-10-13T23:53:44.099Z,98512.47
2022-10-13T23:56:11.757Z,98514.78
2022-10-13T23:58:42.766Z,98508.00
